sensor_id;sensor_type;location;lat;lon;timestamp;P1;durP1;ratioP1;P2;durP2;ratioP2
44572;SDS011;31762;45.420;10.072;2023-09-19T00:36:03;8.10;;;5.47;;
44572;SDS011;31762;45.420;10.072;2023-09-19T00:41:05;4.88;;;4.30;;
44572;SDS011;31762;45.420;10.072;2023-09-19T00:46:07;5.45;;;4.15;;
44572;SDS011;31762;45.420;10.072;2023-09-19T00:51:10;7.73;;;4.33;;
44572;SDS011;31762;45.420;10.072;2023-09-19T00:56:12;5.20;;;4.35;;
44572;SDS011;31762;45.420;10.072;2023-09-19T01:01:14;7.33;;;4.53;;
44572;SDS011;31762;45.420;10.072;2023-09-19T01:06:17;5.27;;;4.77;;
44572;SDS011;31762;45.420;10.072;2023-09-19T01:11:32;6.80;;;4.87;;
44572;SDS011;31762;45.420;10.072;2023-09-19T01:16:37;5.97;;;4.78;;
44572;SDS011;31762;45.420;10.072;2023-09-19T01:22:07;6.03;;;4.07;;
44572;SDS011;31762;45.420;10.072;2023-09-19T01:27:52;7.43;;;4.72;;
44572;SDS011;31762;45.420;10.072;2023-09-19T01:33:06;5.25;;;4.45;;
44572;SDS011;31762;45.420;10.072;2023-09-19T01:38:11;5.13;;;4.28;;
44572;SDS011;31762;45.420;10.072;2023-09-19T01:54:01;6.38;;;4.70;;
44572;SDS011;31762;45.420;10.072;2023-09-19T01:59:24;7.50;;;4.57;;
44572;SDS011;31762;45.420;10.072;2023-09-19T02:04:32;5.03;;;4.45;;
44572;SDS011;31762;45.420;10.072;2023-09-19T02:09:50;8.25;;;5.55;;
44572;SDS011;31762;45.420;10.072;2023-09-19T02:14:59;7.72;;;5.45;;
44572;SDS011;31762;45.420;10.072;2023-09-19T02:20:03;6.28;;;4.63;;
44572;SDS011;31762;45.420;10.072;2023-09-19T02:25:20;6.38;;;5.78;;
44572;SDS011;31762;45.420;10.072;2023-09-19T02:30:27;7.47;;;5.18;;
44572;SDS011;31762;45.420;10.072;2023-09-19T02:35:31;6.82;;;5.50;;
44572;SDS011;31762;45.420;10.072;2023-09-19T02:40:47;7.90;;;4.70;;
44572;SDS011;31762;45.420;10.072;2023-09-19T02:45:59;8.18;;;5.80;;
44572;SDS011;31762;45.420;10.072;2023-09-19T02:51:07;7.15;;;6.07;;
44572;SDS011;31762;45.420;10.072;2023-09-19T02:56:23;6.57;;;5.80;;
44572;SDS011;31762;45.420;10.072;2023-09-19T03:45:20;7.97;;;7.17;;
44572;SDS011;31762;45.420;10.072;2023-09-19T03:50:22;9.57;;;8.35;;
44572;SDS011;31762;45.420;10.072;2023-09-19T03:55:24;7.57;;;6.85;;
44572;SDS011;31762;45.420;10.072;2023-09-19T04:00:28;7.50;;;6.68;;
44572;SDS011;31762;45.420;10.072;2023-09-19T04:05:31;13.43;;;9.00;;
44572;SDS011;31762;45.420;10.072;2023-09-19T04:10:33;10.35;;;9.18;;
44572;SDS011;31762;45.420;10.072;2023-09-19T04:15:35;10.07;;;8.05;;
44572;SDS011;31762;45.420;10.072;2023-09-19T04:20:38;10.27;;;9.00;;
44572;SDS011;31762;45.420;10.072;2023-09-19T04:25:40;10.00;;;9.00;;
44572;SDS011;31762;45.420;10.072;2023-09-19T04:30:43;11.35;;;9.30;;
44572;SDS011;31762;45.420;10.072;2023-09-19T04:35:45;11.25;;;9.90;;
44572;SDS011;31762;45.420;10.072;2023-09-19T04:40:50;11.45;;;9.68;;
44572;SDS011;31762;45.420;10.072;2023-09-19T04:46:03;10.18;;;9.18;;
44572;SDS011;31762;45.420;10.072;2023-09-19T04:51:21;9.93;;;7.53;;
44572;SDS011;31762;45.420;10.072;2023-09-19T04:56:47;9.40;;;7.18;;
44572;SDS011;31762;45.420;10.072;2023-09-19T05:02:16;8.73;;;7.80;;
44572;SDS011;31762;45.420;10.072;2023-09-19T13:55:29;5.60;;;3.70;;
44572;SDS011;31762;45.420;10.072;2023-09-19T14:00:31;4.18;;;3.28;;
44572;SDS011;31762;45.420;10.072;2023-09-19T14:05:37;4.82;;;2.80;;
44572;SDS011;31762;45.420;10.072;2023-09-19T14:10:39;3.92;;;3.53;;
44572;SDS011;31762;45.420;10.072;2023-09-19T14:15:42;4.23;;;3.53;;
44572;SDS011;31762;45.420;10.072;2023-09-19T14:20:44;3.67;;;2.90;;
44572;SDS011;31762;45.420;10.072;2023-09-19T14:25:46;5.57;;;3.57;;
44572;SDS011;31762;45.420;10.072;2023-09-19T14:30:49;4.22;;;3.30;;
44572;SDS011;31762;45.420;10.072;2023-09-19T14:35:51;6.50;;;3.43;;
44572;SDS011;31762;45.420;10.072;2023-09-19T14:41:04;3.60;;;3.10;;
44572;SDS011;31762;45.420;10.072;2023-09-19T14:46:07;3.63;;;3.03;;
44572;SDS011;31762;45.420;10.072;2023-09-19T14:51:10;4.37;;;2.97;;
44572;SDS011;31762;45.420;10.072;2023-09-19T14:56:12;3.50;;;3.20;;
44572;SDS011;31762;45.420;10.072;2023-09-19T15:01:14;3.33;;;2.90;;
44572;SDS011;31762;45.420;10.072;2023-09-19T15:06:17;3.13;;;2.83;;
44572;SDS011;31762;45.420;10.072;2023-09-19T15:11:19;3.33;;;3.03;;
44572;SDS011;31762;45.420;10.072;2023-09-19T15:16:22;3.28;;;2.97;;
44572;SDS011;31762;45.420;10.072;2023-09-19T15:21:24;3.35;;;2.97;;
44572;SDS011;31762;45.420;10.072;2023-09-19T15:26:26;3.25;;;3.00;;
44572;SDS011;31762;45.420;10.072;2023-09-19T15:31:29;4.00;;;2.97;;
44572;SDS011;31762;45.420;10.072;2023-09-19T15:36:31;3.50;;;3.20;;
44572;SDS011;31762;45.420;10.072;2023-09-19T15:41:34;3.30;;;2.63;;
44572;SDS011;31762;45.420;10.072;2023-09-19T15:46:37;3.47;;;2.80;;
44572;SDS011;31762;45.420;10.072;2023-09-19T15:51:39;3.63;;;2.88;;
44572;SDS011;31762;45.420;10.072;2023-09-19T15:56:42;5.50;;;2.78;;
44572;SDS011;31762;45.420;10.072;2023-09-19T16:01:45;3.10;;;2.80;;
44572;SDS011;31762;45.420;10.072;2023-09-19T16:06:47;5.47;;;3.20;;
44572;SDS011;31762;45.420;10.072;2023-09-19T16:11:50;4.93;;;3.23;;
44572;SDS011;31762;45.420;10.072;2023-09-19T16:16:52;4.30;;;3.38;;
44572;SDS011;31762;45.420;10.072;2023-09-19T16:21:54;3.93;;;3.00;;
44572;SDS011;31762;45.420;10.072;2023-09-19T16:26:58;4.50;;;3.17;;
44572;SDS011;31762;45.420;10.072;2023-09-19T16:32:01;4.57;;;2.90;;
44572;SDS011;31762;45.420;10.072;2023-09-19T16:37:05;3.03;;;2.72;;
44572;SDS011;31762;45.420;10.072;2023-09-19T16:42:07;2.67;;;2.47;;
44572;SDS011;31762;45.420;10.072;2023-09-19T16:47:21;3.05;;;2.75;;
44572;SDS011;31762;45.420;10.072;2023-09-19T16:52:23;3.03;;;2.80;;
44572;SDS011;31762;45.420;10.072;2023-09-19T16:57:26;2.90;;;2.60;;
44572;SDS011;31762;45.420;10.072;2023-09-19T17:02:28;3.90;;;3.00;;
44572;SDS011;31762;45.420;10.072;2023-09-19T17:07:31;3.67;;;2.97;;
44572;SDS011;31762;45.420;10.072;2023-09-19T17:12:33;3.13;;;2.77;;
44572;SDS011;31762;45.420;10.072;2023-09-19T17:17:35;3.13;;;2.60;;
44572;SDS011;31762;45.420;10.072;2023-09-19T17:22:38;2.80;;;2.57;;
44572;SDS011;31762;45.420;10.072;2023-09-19T17:27:40;4.50;;;3.10;;
44572;SDS011;31762;45.420;10.072;2023-09-19T17:32:43;3.13;;;2.72;;
44572;SDS011;31762;45.420;10.072;2023-09-19T17:42:48;3.83;;;2.80;;
44572;SDS011;31762;45.420;10.072;2023-09-19T17:47:51;3.00;;;2.80;;
44572;SDS011;31762;45.420;10.072;2023-09-19T17:52:53;2.80;;;2.60;;
44572;SDS011;31762;45.420;10.072;2023-09-19T17:57:55;3.17;;;2.70;;
44572;SDS011;31762;45.420;10.072;2023-09-19T18:03:01;3.97;;;3.08;;
44572;SDS011;31762;45.420;10.072;2023-09-19T18:08:03;4.47;;;2.88;;
44572;SDS011;31762;45.420;10.072;2023-09-19T18:13:06;3.10;;;2.80;;
44572;SDS011;31762;45.420;10.072;2023-09-19T18:18:08;5.40;;;3.33;;
44572;SDS011;31762;45.420;10.072;2023-09-19T18:23:11;2.90;;;2.60;;
44572;SDS011;31762;45.420;10.072;2023-09-19T18:28:13;4.03;;;2.60;;
44572;SDS011;31762;45.420;10.072;2023-09-19T18:33:15;3.40;;;2.60;;
44572;SDS011;31762;45.420;10.072;2023-09-19T18:38:18;5.00;;;3.30;;
44572;SDS011;31762;45.420;10.072;2023-09-19T18:43:20;3.40;;;2.77;;
44572;SDS011;31762;45.420;10.072;2023-09-19T18:48:22;3.33;;;3.03;;
44572;SDS011;31762;45.420;10.072;2023-09-19T18:53:25;3.50;;;3.00;;
44572;SDS011;31762;45.420;10.072;2023-09-19T18:58:27;4.07;;;3.30;;
44572;SDS011;31762;45.420;10.072;2023-09-19T19:03:30;4.67;;;2.77;;
44572;SDS011;31762;45.420;10.072;2023-09-19T19:08:33;4.63;;;2.85;;
44572;SDS011;31762;45.420;10.072;2023-09-19T19:13:36;6.70;;;3.80;;
44572;SDS011;31762;45.420;10.072;2023-09-19T19:18:38;3.67;;;3.30;;
44572;SDS011;31762;45.420;10.072;2023-09-19T19:23:41;3.40;;;2.90;;
44572;SDS011;31762;45.420;10.072;2023-09-19T19:28:44;5.00;;;3.60;;
44572;SDS011;31762;45.420;10.072;2023-09-19T19:33:46;3.83;;;3.30;;
44572;SDS011;31762;45.420;10.072;2023-09-19T19:38:49;4.67;;;3.80;;
44572;SDS011;31762;45.420;10.072;2023-09-19T19:43:51;6.60;;;3.95;;
44572;SDS011;31762;45.420;10.072;2023-09-19T19:48:54;7.40;;;3.77;;
44572;SDS011;31762;45.420;10.072;2023-09-19T19:53:56;4.47;;;3.50;;
44572;SDS011;31762;45.420;10.072;2023-09-19T19:58:58;5.20;;;3.85;;
44572;SDS011;31762;45.420;10.072;2023-09-19T20:04:01;3.90;;;3.23;;
44572;SDS011;31762;45.420;10.072;2023-09-19T20:09:03;8.73;;;4.37;;
44572;SDS011;31762;45.420;10.072;2023-09-19T20:14:06;5.83;;;4.17;;
44572;SDS011;31762;45.420;10.072;2023-09-19T20:19:08;7.07;;;4.13;;
44572;SDS011;31762;45.420;10.072;2023-09-19T20:24:10;6.13;;;3.92;;
44572;SDS011;31762;45.420;10.072;2023-09-19T20:29:13;6.25;;;4.18;;
44572;SDS011;31762;45.420;10.072;2023-09-19T20:34:15;6.97;;;3.73;;
44572;SDS011;31762;45.420;10.072;2023-09-19T20:39:17;6.35;;;4.13;;
44572;SDS011;31762;45.420;10.072;2023-09-19T20:44:20;8.98;;;4.53;;
44572;SDS011;31762;45.420;10.072;2023-09-19T20:49:22;8.37;;;4.43;;
44572;SDS011;31762;45.420;10.072;2023-09-19T20:54:24;6.83;;;4.80;;
44572;SDS011;31762;45.420;10.072;2023-09-19T20:59:27;8.98;;;4.20;;
44572;SDS011;31762;45.420;10.072;2023-09-19T21:04:29;5.63;;;4.47;;
44572;SDS011;31762;45.420;10.072;2023-09-19T21:09:31;7.32;;;4.80;;
44572;SDS011;31762;45.420;10.072;2023-09-19T21:14:34;5.90;;;4.67;;
44572;SDS011;31762;45.420;10.072;2023-09-19T21:19:37;5.05;;;4.53;;
44572;SDS011;31762;45.420;10.072;2023-09-19T21:24:40;7.10;;;5.00;;
44572;SDS011;31762;45.420;10.072;2023-09-19T21:29:42;8.23;;;5.67;;
44572;SDS011;31762;45.420;10.072;2023-09-19T21:34:45;8.52;;;5.45;;
44572;SDS011;31762;45.420;10.072;2023-09-19T21:39:47;6.35;;;5.40;;
44572;SDS011;31762;45.420;10.072;2023-09-19T21:44:50;10.60;;;5.90;;
44572;SDS011;31762;45.420;10.072;2023-09-19T21:49:52;6.95;;;5.38;;
44572;SDS011;31762;45.420;10.072;2023-09-19T21:54:55;8.70;;;5.70;;
44572;SDS011;31762;45.420;10.072;2023-09-19T21:59:57;7.40;;;5.50;;
44572;SDS011;31762;45.420;10.072;2023-09-19T22:05:00;6.37;;;5.10;;
44572;SDS011;31762;45.420;10.072;2023-09-19T22:10:02;6.17;;;5.30;;
44572;SDS011;31762;45.420;10.072;2023-09-19T22:15:05;8.43;;;5.60;;
44572;SDS011;31762;45.420;10.072;2023-09-19T22:20:08;7.07;;;5.65;;
44572;SDS011;31762;45.420;10.072;2023-09-19T22:25:10;6.67;;;4.47;;
44572;SDS011;31762;45.420;10.072;2023-09-19T22:30:13;8.40;;;5.72;;
44572;SDS011;31762;45.420;10.072;2023-09-19T22:35:15;9.70;;;5.65;;
44572;SDS011;31762;45.420;10.072;2023-09-19T22:40:17;9.67;;;5.47;;
44572;SDS011;31762;45.420;10.072;2023-09-19T22:45:20;7.03;;;4.63;;
44572;SDS011;31762;45.420;10.072;2023-09-19T22:50:22;6.70;;;5.25;;
44572;SDS011;31762;45.420;10.072;2023-09-19T22:55:24;5.60;;;5.00;;
44572;SDS011;31762;45.420;10.072;2023-09-19T23:00:26;5.18;;;4.05;;
44572;SDS011;31762;45.420;10.072;2023-09-19T23:05:33;5.15;;;4.65;;
44572;SDS011;31762;45.420;10.072;2023-09-19T23:10:42;8.68;;;5.20;;
44572;SDS011;31762;45.420;10.072;2023-09-19T23:15:44;8.45;;;4.90;;
44572;SDS011;31762;45.420;10.072;2023-09-19T23:20:47;5.70;;;4.90;;
44572;SDS011;31762;45.420;10.072;2023-09-19T23:25:49;5.93;;;4.47;;
44572;SDS011;31762;45.420;10.072;2023-09-19T23:30:51;4.90;;;4.30;;
44572;SDS011;31762;45.420;10.072;2023-09-19T23:35:53;5.53;;;4.63;;
44572;SDS011;31762;45.420;10.072;2023-09-19T23:40:56;5.93;;;4.27;;
44572;SDS011;31762;45.420;10.072;2023-09-19T23:45:58;7.00;;;4.67;;
44572;SDS011;31762;45.420;10.072;2023-09-19T23:51:01;8.17;;;4.80;;
44572;SDS011;31762;45.420;10.072;2023-09-19T23:56:03;6.80;;;4.97;;
